Time;durP1;ratioP1;P1;durP2;ratioP2;P2;SDS_P1;SDS_P2;PMS_P1;PMS_P2;Temp;Humidity;BMP_temperature;BMP_pressure;BME280_temperature;BME280_humidity;BME280_pressure;Samples;Min_cycle;Max_cycle;Signal;HPM_P1;HPM_P2
2023/03/11 00:00:43;;;;;;;6.90;4.23;;;6.20;99.90;;;;;;4925479;28;20070;-72
2023/03/11 00:03:11;;;;;;;6.50;4.90;;;6.30;99.90;;;;;;4925988;29;21150;-71
2023/03/11 00:05:38;;;;;;;7.10;4.77;;;6.30;99.90;;;;;;4933943;29;20044;-72
2023/03/11 00:08:05;;;;;;;5.20;4.63;;;6.30;99.90;;;;;;4934108;29;20032;-72
2023/03/11 00:10:33;;;;;;;6.57;4.67;;;6.20;99.90;;;;;;4937610;28;20051;-72
2023/03/11 00:12:59;;;;;;;5.13;4.33;;;6.20;99.90;;;;;;4950054;29;20027;-72
2023/03/11 00:15:26;;;;;;;3.37;2.80;;;6.10;99.90;;;;;;4955869;28;20028;-72
2023/03/11 00:17:52;;;;;;;5.03;4.63;;;6.10;99.90;;;;;;4935544;29;20055;-72
2023/03/11 00:20:28;;;;;;;6.40;5.33;;;6.00;99.90;;;;;;4937127;29;20043;-72
2023/03/11 00:22:54;;;;;;;4.10;3.57;;;6.00;99.90;;;;;;4937075;29;20031;-72
2023/03/11 00:25:21;;;;;;;3.40;2.97;;;6.00;99.90;;;;;;4937410;29;20051;-71
2023/03/11 00:27:47;;;;;;;4.70;4.27;;;6.00;99.90;;;;;;4930553;29;20028;-72
2023/03/11 00:30:13;;;;;;;3.90;3.23;;;6.00;99.90;;;;;;4929497;28;20404;-72
2023/03/11 00:32:39;;;;;;;4.73;4.23;;;5.90;99.90;;;;;;4938211;29;20036;-72
2023/03/11 00:35:06;;;;;;;4.30;3.90;;;5.90;99.90;;;;;;4957084;29;20042;-72
2023/03/11 00:37:32;;;;;;;6.83;3.90;;;5.90;99.90;;;;;;4941553;28;20048;-72
2023/03/11 00:39:59;;;;;;;3.53;3.30;;;5.90;99.90;;;;;;4937979;29;20043;-72
2023/03/11 00:42:25;;;;;;;4.27;3.87;;;5.90;99.90;;;;;;4937023;29;20032;-72
2023/03/11 00:44:51;;;;;;;4.67;3.90;;;5.90;99.90;;;;;;4937026;29;20039;-72
2023/03/11 00:47:17;;;;;;;4.03;3.73;;;5.90;99.90;;;;;;4936825;28;20043;-72
2023/03/11 00:49:43;;;;;;;4.00;3.70;;;5.90;99.90;;;;;;4937374;29;20028;-72
2023/03/11 00:52:09;;;;;;;4.87;4.10;;;5.90;99.90;;;;;;4937459;29;20433;-72
2023/03/11 00:54:35;;;;;;;4.90;4.20;;;5.90;99.90;;;;;;4936903;29;20043;-72
2023/03/11 00:57:01;;;;;;;3.67;3.47;;;6.00;99.90;;;;;;4933732;29;20046;-72
2023/03/11 00:59:27;;;;;;;4.53;3.77;;;5.90;99.90;;;;;;4929671;29;20048;-72
2023/03/11 01:01:53;;;;;;;4.83;4.33;;;5.90;99.90;;;;;;4935384;29;20046;-72
2023/03/11 01:04:19;;;;;;;4.73;4.30;;;5.90;99.90;;;;;;4937088;29;20036;-72
2023/03/11 01:06:45;;;;;;;5.40;4.20;;;5.90;99.90;;;;;;4937445;29;20027;-72
2023/03/11 01:09:12;;;;;;;4.30;4.00;;;5.90;99.90;;;;;;4935449;29;20038;-72
2023/03/11 01:11:38;;;;;;;4.77;3.80;;;6.00;99.90;;;;;;4940160;29;20039;-72
2023/03/11 01:14:04;;;;;;;4.10;3.80;;;5.90;99.90;;;;;;4953849;29;20031;-72
2023/03/11 01:16:30;;;;;;;4.10;3.80;;;6.00;99.90;;;;;;4936610;28;20047;-72
2023/03/11 01:18:56;;;;;;;4.10;3.80;;;6.00;99.90;;;;;;4936587;29;20078;-72
2023/03/11 01:21:22;;;;;;;3.43;3.23;;;6.00;99.90;;;;;;4937259;29;20036;-72
2023/03/11 01:23:48;;;;;;;4.00;3.73;;;6.00;99.90;;;;;;4936398;29;20054;-72
2023/03/11 01:26:14;;;;;;;4.27;3.87;;;6.10;99.90;;;;;;4936040;29;20036;-72
2023/03/11 01:28:40;;;;;;;4.37;3.97;;;6.20;99.90;;;;;;4935419;29;20040;-72
2023/03/11 01:31:08;;;;;;;4.33;3.93;;;6.30;99.90;;;;;;4936806;28;20036;-72
2023/03/11 01:33:34;;;;;;;4.07;3.77;;;6.30;99.90;;;;;;4944584;29;20038;-72
2023/03/11 01:36:00;;;;;;;3.37;3.17;;;6.20;99.90;;;;;;4939254;28;20047;-72
2023/03/11 01:38:27;;;;;;;3.63;3.33;;;6.20;99.90;;;;;;4935915;29;20059;-72
2023/03/11 01:40:53;;;;;;;3.60;3.40;;;6.10;99.90;;;;;;4934293;29;20051;-72
2023/03/11 01:43:54;;;;;;;3.97;3.30;;;6.10;99.90;;;;;;4928179;29;20035;-72
2023/03/11 01:46:22;;;;;;;3.60;3.30;;;6.10;99.90;;;;;;4921163;29;20040;-72
2023/03/11 01:48:50;;;;;;;3.60;3.30;;;6.20;99.90;;;;;;4934393;29;20044;-72
2023/03/11 01:51:26;;;;;;;4.00;3.70;;;6.20;99.90;;;;;;4918555;29;20028;-72
2023/03/11 01:53:53;;;;;;;3.90;3.60;;;6.20;99.90;;;;;;4917816;29;20039;-72
2023/03/11 01:56:19;;;;;;;3.57;3.37;;;6.20;99.90;;;;;;4918210;29;20139;-72
2023/03/11 01:58:45;;;;;;;4.07;3.70;;;6.10;99.90;;;;;;4911215;29;20531;-71
2023/03/11 02:01:11;;;;;;;4.23;3.87;;;6.10;99.90;;;;;;4912077;29;20046;-71
2023/03/11 02:03:39;;;;;;;3.60;3.30;;;6.10;99.90;;;;;;4934168;29;20036;-71
2023/03/11 02:06:07;;;;;;;4.00;3.60;;;6.00;99.90;;;;;;4917978;29;20039;-71
2023/03/11 02:08:33;;;;;;;3.73;3.43;;;6.00;99.90;;;;;;4918336;29;20048;-71
2023/03/11 02:10:59;;;;;;;3.93;3.63;;;6.00;99.90;;;;;;4917794;29;20411;-71
2023/03/11 02:13:26;;;;;;;3.60;3.40;;;6.10;99.90;;;;;;4917063;29;20055;-71
2023/03/11 02:15:52;;;;;;;4.30;4.00;;;6.10;99.90;;;;;;4917208;29;20042;-71
2023/03/11 02:18:19;;;;;;;3.60;3.30;;;6.20;99.90;;;;;;4933611;29;20377;-71
2023/03/11 02:20:57;;;;;;;3.10;2.90;;;6.10;99.90;;;;;;4931435;29;20031;-71
2023/03/11 02:23:25;;;;;;;4.10;3.80;;;6.10;99.90;;;;;;4934836;29;20038;-70
2023/03/11 02:26:04;;;;;;;4.27;3.97;;;6.10;99.90;;;;;;4919354;29;20468;-71
2023/03/11 02:28:30;;;;;;;3.57;3.27;;;6.10;99.90;;;;;;4915761;29;20098;-71
2023/03/11 02:30:56;;;;;;;3.97;3.67;;;6.10;99.90;;;;;;4928566;29;20043;-71
2023/03/11 02:33:24;;;;;;;4.27;3.93;;;6.10;99.90;;;;;;4940867;29;20046;-71
2023/03/11 02:35:50;;;;;;;4.00;3.70;;;6.10;99.90;;;;;;4953935;29;20104;-71
2023/03/11 02:38:16;;;;;;;3.80;3.60;;;6.10;99.90;;;;;;4952311;29;20047;-71
2023/03/11 02:40:57;;;;;;;3.87;3.57;;;6.10;99.90;;;;;;4916983;29;20392;-71
2023/03/11 02:43:42;;;;;;;;;;;6.10;99.90;;;;;;4929435;29;20048;-70
2023/03/11 02:46:09;;;;;;;3.20;3.00;;;6.00;99.90;;;;;;4916989;28;20361;-71
2023/03/11 02:48:35;;;;;;;3.17;2.97;;;6.00;99.90;;;;;;4934958;29;20040;-71
2023/03/11 02:51:01;;;;;;;3.87;3.67;;;5.90;99.90;;;;;;4934063;29;20039;-71
2023/03/11 02:53:29;;;;;;;3.40;3.20;;;5.90;99.90;;;;;;4934723;29;20035;-70
2023/03/11 02:55:55;;;;;;;3.60;3.40;;;5.90;99.90;;;;;;4934574;29;20440;-71
2023/03/11 02:58:21;;;;;;;3.37;3.10;;;5.90;99.90;;;;;;4934300;29;20043;-71
2023/03/11 03:00:47;;;;;;;2.67;2.47;;;5.90;99.90;;;;;;4934311;28;20500;-71
2023/03/11 03:03:13;;;;;;;3.40;3.20;;;5.90;99.90;;;;;;4935887;29;20054;-71
2023/03/11 03:05:39;;;;;;;2.70;2.60;;;5.90;99.90;;;;;;4935021;29;20031;-71
2023/03/11 03:08:05;;;;;;;4.23;3.50;;;5.90;99.90;;;;;;4934984;28;20035;-71
2023/03/11 03:10:32;;;;;;;2.20;2.10;;;5.90;99.90;;;;;;4935190;29;20055;-71
2023/03/11 03:12:58;;;;;;;3.50;3.23;;;5.90;99.90;;;;;;4948910;29;20034;-71
2023/03/11 03:15:24;;;;;;;2.60;2.50;;;6.00;99.90;;;;;;4932865;28;20043;-71
2023/03/11 03:17:50;;;;;;;3.57;3.37;;;6.00;99.90;;;;;;4928855;29;20047;-71
2023/03/11 03:20:17;;;;;;;3.30;3.10;;;5.90;99.90;;;;;;4930252;29;20047;-71
2023/03/11 03:22:43;;;;;;;2.93;2.73;;;5.90;99.90;;;;;;4934945;29;20035;-71
2023/03/11 03:25:09;;;;;;;3.37;3.17;;;5.90;99.90;;;;;;4932856;29;20386;-71
2023/03/11 03:27:35;;;;;;;3.23;2.97;;;5.90;99.90;;;;;;4935059;29;20027;-71
2023/03/11 03:30:01;;;;;;;3.30;3.00;;;5.90;99.90;;;;;;4933534;29;20392;-71
2023/03/11 03:32:27;;;;;;;2.87;2.67;;;5.90;99.90;;;;;;4932658;29;20066;-71
2023/03/11 03:34:57;;;;;;;2.33;2.23;;;5.90;99.90;;;;;;4934229;29;20032;-71
2023/03/11 03:37:25;;;;;;;2.93;2.73;;;5.80;99.90;;;;;;4933736;29;20035;-71
2023/03/11 03:39:51;;;;;;;2.90;2.70;;;5.80;99.90;;;;;;4935098;29;20051;-71
2023/03/11 03:42:18;;;;;;;3.10;2.90;;;5.90;99.90;;;;;;4933856;29;20044;-71
2023/03/11 03:44:44;;;;;;;2.67;2.47;;;5.90;99.90;;;;;;4938125;29;20043;-71
2023/03/11 03:47:10;;;;;;;2.70;2.50;;;5.90;99.90;;;;;;4938460;28;20028;-71
2023/03/11 03:49:37;;;;;;;3.00;2.80;;;5.90;99.90;;;;;;4933543;29;20047;-71
2023/03/11 03:52:07;;;;;;;3.30;3.10;;;5.90;99.90;;;;;;4929887;29;20035;-71
2023/03/11 03:54:33;;;;;;;3.00;2.80;;;6.10;99.90;;;;;;4929548;29;20052;-71
2023/03/11 03:56:59;;;;;;;3.10;2.90;;;6.00;99.90;;;;;;4938618;29;20051;-71
2023/03/11 03:59:25;;;;;;;2.97;2.67;;;6.00;99.90;;;;;;4936264;29;20477;-71
2023/03/11 04:01:51;;;;;;;2.63;2.50;;;6.00;99.90;;;;;;4938121;28;20051;-71
2023/03/11 04:04:18;;;;;;;3.57;3.37;;;6.00;99.90;;;;;;4932366;29;20051;-71
2023/03/11 04:06:44;;;;;;;2.60;2.50;;;6.00;99.90;;;;;;4936671;29;20393;-71
2023/03/11 04:09:10;;;;;;;3.73;3.53;;;5.90;99.90;;;;;;4938075;29;20039;-71
2023/03/11 04:11:36;;;;;;;3.00;2.80;;;5.90;99.90;;;;;;4941324;29;20031;-71
2023/03/11 04:14:03;;;;;;;2.87;2.67;;;5.80;99.90;;;;;;4939812;29;20034;-72
2023/03/11 04:16:29;;;;;;;3.03;2.83;;;5.80;99.90;;;;;;4935195;28;20039;-71
2023/03/11 04:18:55;;;;;;;2.40;2.30;;;5.80;99.90;;;;;;4938495;29;20063;-71
2023/03/11 04:21:21;;;;;;;2.70;2.50;;;5.80;99.90;;;;;;4937524;29;20529;-71
2023/03/11 04:23:48;;;;;;;2.90;2.70;;;5.80;99.90;;;;;;4938323;29;20047;-71
2023/03/11 04:26:14;;;;;;;3.03;2.63;;;5.80;99.90;;;;;;4936231;29;20055;-71
2023/03/11 04:28:40;;;;;;;3.00;2.80;;;5.90;99.90;;;;;;4934944;29;20032;-71
2023/03/11 04:31:06;;;;;;;2.53;2.23;;;5.80;99.90;;;;;;4937848;28;20404;-71
2023/03/11 04:33:32;;;;;;;2.80;2.60;;;5.80;99.90;;;;;;4945769;29;20051;-71
2023/03/11 04:35:58;;;;;;;2.67;2.47;;;5.80;99.90;;;;;;4956958;29;20031;-71
2023/03/11 04:38:24;;;;;;;2.73;2.53;;;5.90;99.90;;;;;;4948355;29;20036;-70
2023/03/11 04:40:50;;;;;;;3.40;2.97;;;5.90;99.90;;;;;;4936734;29;20048;-70
2023/03/11 04:43:16;;;;;;;2.93;2.70;;;6.00;99.90;;;;;;4934816;29;20496;-71
2023/03/11 04:45:43;;;;;;;2.83;2.63;;;5.90;99.90;;;;;;4932985;28;20036;-71
2023/03/11 04:48:09;;;;;;;2.33;2.23;;;5.90;99.90;;;;;;4937629;29;20035;-71
2023/03/11 04:50:35;;;;;;;3.13;2.93;;;6.00;99.90;;;;;;4937156;29;20110;-71
2023/03/11 04:53:01;;;;;;;2.80;2.60;;;6.00;99.90;;;;;;4935165;29;20444;-71
2023/03/11 04:55:27;;;;;;;3.20;3.00;;;6.00;99.90;;;;;;4936962;29;20024;-71
2023/03/11 04:57:53;;;;;;;2.87;2.67;;;6.00;99.90;;;;;;4937257;29;20393;-71
2023/03/11 05:00:23;;;;;;;2.80;2.60;;;5.90;99.90;;;;;;4935378;28;20051;-71
2023/03/11 05:02:49;;;;;;;3.10;2.90;;;5.90;99.90;;;;;;4936743;29;20047;-71
2023/03/11 05:05:17;;;;;;;3.40;3.10;;;5.90;99.90;;;;;;4936361;29;20402;-71
2023/03/11 05:07:43;;;;;;;2.90;2.70;;;5.90;99.90;;;;;;4936501;29;20043;-71
2023/03/11 05:10:10;;;;;;;3.57;2.90;;;5.90;99.90;;;;;;4936288;29;20048;-71
2023/03/11 05:12:36;;;;;;;3.00;2.80;;;5.90;99.90;;;;;;4948421;29;20478;-71
2023/03/11 05:15:02;;;;;;;2.87;2.67;;;6.00;99.90;;;;;;4937860;28;20516;-70
2023/03/11 05:17:29;;;;;;;3.37;3.07;;;6.00;99.90;;;;;;4928735;29;20050;-71
2023/03/11 05:19:55;;;;;;;3.17;2.97;;;5.90;99.90;;;;;;4930403;29;20667;-71
2023/03/11 05:22:21;;;;;;;3.40;3.20;;;5.90;99.90;;;;;;4937234;29;20445;-71
2023/03/11 05:24:47;;;;;;;4.00;3.37;;;6.00;99.90;;;;;;4935589;29;20469;-71
2023/03/11 05:27:16;;;;;;;3.80;3.43;;;5.90;99.90;;;;;;4935148;29;20046;-71
2023/03/11 05:29:43;;;;;;;4.87;3.37;;;6.00;99.90;;;;;;4934963;29;20031;-71
2023/03/11 05:32:11;;;;;;;3.47;3.17;;;6.00;99.90;;;;;;4935874;28;20474;-70
2023/03/11 05:34:37;;;;;;;3.97;3.67;;;5.90;99.90;;;;;;4952751;29;20030;-70
2023/03/11 05:37:03;;;;;;;4.60;3.20;;;5.90;99.90;;;;;;4940899;28;20054;-71
2023/03/11 05:39:29;;;;;;;3.93;3.63;;;5.90;99.90;;;;;;4936743;29;20039;-71
2023/03/11 05:41:55;;;;;;;3.40;3.10;;;5.90;99.90;;;;;;4936266;29;20540;-71
2023/03/11 05:44:22;;;;;;;3.93;3.33;;;5.90;99.90;;;;;;4935400;29;20043;-71
2023/03/11 05:46:48;;;;;;;3.17;2.97;;;5.80;99.90;;;;;;4932359;28;20101;-70
2023/03/11 05:49:14;;;;;;;3.30;3.10;;;5.80;99.90;;;;;;4934798;29;20032;-71
2023/03/11 05:51:40;;;;;;;3.13;2.93;;;5.90;99.90;;;;;;4936553;29;20023;-71
2023/03/11 05:54:13;;;;;;;3.23;3.03;;;5.90;99.90;;;;;;4936240;29;20038;-71
2023/03/11 05:56:45;;;;;;;3.13;2.87;;;5.80;99.90;;;;;;4934420;29;20104;-71
2023/03/11 05:59:12;;;;;;;3.60;3.30;;;5.90;99.90;;;;;;4935709;29;20370;-71
2023/03/11 06:01:38;;;;;;;3.30;3.00;;;5.90;99.90;;;;;;4935707;28;20481;-71
2023/03/11 06:04:05;;;;;;;3.27;2.97;;;5.90;99.90;;;;;;4935011;29;20074;-71
2023/03/11 06:06:31;;;;;;;43.50;4.70;;;5.90;99.90;;;;;;4935353;29;20376;-71
2023/03/11 06:08:57;;;;;;;2.63;2.43;;;5.90;99.90;;;;;;4936033;29;20058;-71
2023/03/11 06:11:24;;;;;;;2.87;2.67;;;6.00;99.90;;;;;;4936447;29;20056;-71
2023/03/11 06:13:54;;;;;;;3.20;2.60;;;5.90;99.90;;;;;;4936321;29;20028;-71
2023/03/11 06:16:20;;;;;;;2.67;2.50;;;6.00;99.90;;;;;;4935533;28;20117;-71
2023/03/11 06:18:47;;;;;;;2.63;2.43;;;6.00;99.90;;;;;;4934187;29;20058;-70
2023/03/11 06:21:17;;;;;;;9.73;3.20;;;6.00;99.90;;;;;;4933581;29;20023;-71
2023/03/11 06:23:43;;;;;;;3.00;2.80;;;6.00;99.90;;;;;;4919500;29;20401;-71
2023/03/11 06:26:10;;;;;;;3.20;3.00;;;6.00;99.90;;;;;;4933441;29;20032;-72
2023/03/11 06:28:36;;;;;;;2.90;2.70;;;6.00;99.90;;;;;;4932961;29;20381;-71
2023/03/11 06:31:19;;;;;;;3.00;2.80;;;6.10;99.90;;;;;;4934101;29;20043;-71
2023/03/11 06:33:46;;;;;;;2.80;2.60;;;6.10;99.90;;;;;;4928389;29;20500;-71
2023/03/11 06:36:13;;;;;;;2.90;2.70;;;6.10;99.90;;;;;;4939916;29;20040;-71
2023/03/11 06:38:39;;;;;;;3.10;2.90;;;6.20;99.90;;;;;;4918949;29;20032;-71
2023/03/11 06:41:05;;;;;;;3.50;2.90;;;6.20;99.90;;;;;;4933972;29;20033;-71
2023/03/11 06:43:32;;;;;;;3.20;3.00;;;6.10;99.90;;;;;;4934482;29;20385;-71
2023/03/11 06:45:58;;;;;;;3.10;2.90;;;6.00;99.90;;;;;;4917970;29;20047;-71
2023/03/11 06:48:25;;;;;;;3.40;3.10;;;6.00;99.90;;;;;;4934564;29;20042;-71
2023/03/11 06:50:58;;;;;;;5.23;3.13;;;6.00;99.90;;;;;;4934399;29;20024;-71
2023/03/11 06:53:24;;;;;;;3.17;2.97;;;6.00;99.90;;;;;;4933743;29;20047;-71
2023/03/11 06:56:10;;;;;;;3.17;2.97;;;6.10;99.90;;;;;;4933805;29;20042;-71
2023/03/11 06:58:37;;;;;;;3.07;2.87;;;6.00;99.90;;;;;;4918735;29;20036;-71
2023/03/11 07:01:14;;;;;;;3.10;2.90;;;6.10;99.90;;;;;;4932258;29;20040;-71
2023/03/11 07:03:40;;;;;;;3.13;2.83;;;6.10;99.90;;;;;;4934280;29;20027;-71
2023/03/11 07:06:10;;;;;;;3.17;2.70;;;6.10;99.90;;;;;;4933432;29;20039;-71
2023/03/11 07:08:36;;;;;;;3.13;2.83;;;6.20;99.90;;;;;;4918831;29;20028;-71
2023/03/11 07:11:13;;;;;;;3.80;3.10;;;6.10;99.90;;;;;;4934664;29;20051;-71
2023/03/11 07:13:39;;;;;;;3.60;3.30;;;6.10;99.90;;;;;;4928808;29;20051;-71
2023/03/11 07:16:06;;;;;;;3.77;3.47;;;6.10;99.90;;;;;;4934775;28;20032;-71
2023/03/11 07:18:33;;;;;;;3.80;3.50;;;6.20;99.90;;;;;;4931081;29;20047;-71
2023/03/11 07:21:04;;;;;;;3.70;3.23;;;6.30;99.90;;;;;;4918010;29;20039;-72
2023/03/11 07:23:30;;;;;;;3.58;3.28;;;6.20;99.90;;;;;;4929764;29;20059;-71
2023/03/11 07:25:56;;;;;;;3.60;3.30;;;6.20;99.90;;;;;;4923032;29;20036;-71
2023/03/11 07:28:23;;;;;;;4.27;3.50;;;6.20;99.90;;;;;;4914542;29;20044;-71
2023/03/11 07:30:49;;;;;;;16.93;4.23;;;6.20;99.90;;;;;;4898735;29;20040;-71
2023/03/11 07:33:15;;;;;;;3.20;2.97;;;6.30;99.90;;;;;;4932332;29;20035;-71
2023/03/11 07:35:41;;;;;;;3.60;3.33;;;6.30;99.90;;;;;;4937215;29;20036;-71
2023/03/11 07:38:07;;;;;;;3.93;3.63;;;6.20;99.90;;;;;;4934318;29;20481;-71
2023/03/11 07:40:34;;;;;;;3.60;3.30;;;6.30;99.90;;;;;;4932022;29;20051;-71
2023/03/11 07:43:00;;;;;;;3.07;2.80;;;6.50;99.90;;;;;;4932254;29;20032;-71
2023/03/11 07:45:26;;;;;;;5.00;4.50;;;6.50;99.90;;;;;;4930393;29;20032;-71
2023/03/11 07:47:52;;;;;;;4.63;3.90;;;6.50;99.90;;;;;;4931350;29;20054;-72
2023/03/11 07:50:21;;;;;;;4.13;3.83;;;6.50;99.90;;;;;;4924597;29;20481;-71
2023/03/11 07:52:47;;;;;;;3.80;3.50;;;6.40;99.90;;;;;;4931742;29;20039;-71
2023/03/11 07:55:13;;;;;;;4.33;4.00;;;6.40;99.90;;;;;;4934431;29;20051;-71
2023/03/11 07:57:40;;;;;;;3.60;3.40;;;6.40;99.90;;;;;;4931330;29;20028;-71
2023/03/11 08:00:06;;;;;;;3.50;3.20;;;6.30;99.90;;;;;;4933859;28;20436;-71
2023/03/11 08:02:32;;;;;;;3.47;3.17;;;6.30;99.90;;;;;;4933569;29;20389;-71
2023/03/11 08:04:58;;;;;;;3.97;3.67;;;6.40;99.90;;;;;;4932661;29;20039;-72
2023/03/11 08:07:25;;;;;;;101.30;7.70;;;6.40;99.90;;;;;;4933187;29;20032;-73
2023/03/11 08:09:51;;;;;;;3.90;3.60;;;6.60;99.90;;;;;;4932932;29;20070;-71
2023/03/11 08:12:17;;;;;;;3.97;3.60;;;6.70;99.90;;;;;;4940305;29;20035;-71
2023/03/11 08:14:43;;;;;;;3.27;3.07;;;6.70;99.90;;;;;;4934822;29;20036;-71
2023/03/11 08:17:09;;;;;;;3.60;3.30;;;6.70;99.90;;;;;;4934124;28;20039;-71
2023/03/11 08:19:35;;;;;;;4.27;3.30;;;6.70;99.90;;;;;;4933469;29;20052;-71
2023/03/11 08:22:02;;;;;;;3.37;3.17;;;6.70;99.90;;;;;;4933434;29;20035;-71
2023/03/11 08:24:28;;;;;;;3.13;2.93;;;6.80;99.90;;;;;;4934554;29;20396;-71
2023/03/11 08:26:55;;;;;;;3.20;3.00;;;6.90;99.90;;;;;;4933436;29;20032;-71
2023/03/11 08:29:24;;;;;;;3.40;3.20;;;6.90;99.90;;;;;;4935010;29;20050;-71
2023/03/11 08:31:50;;;;;;;3.67;3.47;;;6.90;99.90;;;;;;4935274;28;20040;-71
2023/03/11 08:34:16;;;;;;;4.60;4.30;;;6.90;99.90;;;;;;4935371;29;20036;-71
2023/03/11 08:36:43;;;;;;;3.40;3.20;;;6.80;99.90;;;;;;4935850;29;20035;-71
2023/03/11 08:39:09;;;;;;;4.63;4.23;;;6.80;99.90;;;;;;4930609;29;20032;-71
2023/03/11 08:41:35;;;;;;;3.80;3.55;;;6.80;99.90;;;;;;4918722;29;20036;-71
2023/03/11 08:44:01;;;;;;;4.07;3.70;;;6.80;99.90;;;;;;4922909;29;20499;-71
2023/03/11 08:46:29;;;;;;;3.67;3.37;;;6.80;99.90;;;;;;4933861;28;20039;-71
2023/03/11 08:48:55;;;;;;;3.17;2.87;;;6.90;99.90;;;;;;4936877;29;20032;-71
2023/03/11 08:51:22;;;;;;;3.53;3.23;;;7.00;99.90;;;;;;4934136;29;20524;-71
2023/03/11 08:53:48;;;;;;;4.07;3.27;;;7.10;99.90;;;;;;4936157;29;20055;-71
2023/03/11 08:56:14;;;;;;;3.63;3.43;;;7.10;99.90;;;;;;4934906;29;20818;-71
2023/03/11 08:58:40;;;;;;;3.83;3.50;;;7.10;99.90;;;;;;4937043;29;20028;-71
2023/03/11 09:01:08;;;;;;;3.70;3.40;;;7.10;99.90;;;;;;4934722;28;20058;-70
2023/03/11 09:03:34;;;;;;;3.23;3.03;;;7.00;99.90;;;;;;4936129;29;20055;-71
2023/03/11 09:06:02;;;;;;;2.70;2.50;;;7.20;99.90;;;;;;4934520;29;20032;-71
2023/03/11 09:08:28;;;;;;;3.03;2.70;;;7.30;99.90;;;;;;4932540;29;20023;-71
2023/03/11 09:10:54;;;;;;;3.05;2.85;;;7.30;99.90;;;;;;4935590;29;20056;-71
2023/03/11 09:13:20;;;;;;;3.20;3.00;;;7.40;99.90;;;;;;4953110;29;20043;-71
2023/03/11 09:15:50;;;;;;;5.15;4.85;;;7.40;99.90;;;;;;4938286;28;20404;-72
2023/03/11 09:18:16;;;;;;;4.68;4.43;;;7.30;99.90;;;;;;4935013;29;20043;-71
2023/03/11 09:20:42;;;;;;;4.78;4.50;;;7.30;99.90;;;;;;4936090;29;20477;-71
2023/03/11 09:23:09;;;;;;;4.13;3.83;;;7.30;99.90;;;;;;4935897;29;20031;-71
2023/03/11 09:25:36;;;;;;;61.42;5.75;;;7.40;99.90;;;;;;4935477;29;20043;-71
2023/03/11 09:28:02;;;;;;;2.90;2.78;;;7.50;99.90;;;;;;4934411;29;20035;-71
2023/03/11 09:30:28;;;;;;;3.15;2.95;;;7.60;99.90;;;;;;4934621;28;20031;-71
2023/03/11 09:32:54;;;;;;;3.30;3.10;;;7.60;99.90;;;;;;4937453;29;20019;-71
2023/03/11 09:35:20;;;;;;;4.68;4.38;;;7.70;99.90;;;;;;4934310;29;20388;-71
2023/03/11 09:37:46;;;;;;;4.35;4.07;;;7.80;99.90;;;;;;4934374;29;20034;-71
2023/03/11 09:40:16;;;;;;;4.88;4.57;;;7.80;99.90;;;;;;4933179;29;20477;-71
2023/03/11 09:43:00;;;;;;;4.73;4.43;;;7.80;99.90;;;;;;4933519;29;20444;-71
2023/03/11 09:45:37;;;;;;;5.17;4.87;;;7.80;99.90;;;;;;4935135;29;20256;-71
2023/03/11 09:48:29;;;;;;;4.32;4.10;;;7.80;99.90;;;;;;4919955;29;20024;-71
2023/03/11 09:51:16;;;;;;;4.30;4.00;;;7.90;99.90;;;;;;4934499;29;20035;-71
2023/03/11 09:53:45;;;;;;;3.58;3.28;;;8.00;99.90;;;;;;4925000;29;20043;-71
2023/03/11 09:56:17;;;;;;;4.63;4.43;;;8.20;99.90;;;;;;4929607;29;20396;-71
2023/03/11 09:58:51;;;;;;;4.95;4.65;;;8.20;99.90;;;;;;4917590;29;20034;-71
2023/03/11 10:01:51;;;;;;;4.15;3.85;;;8.30;99.90;;;;;;4933996;28;20405;-71
2023/03/11 10:04:22;;;;;;;3.85;3.65;;;8.40;99.90;;;;;;4919211;29;20055;-71
2023/03/11 10:06:49;;;;;;;4.38;4.07;;;8.30;99.90;;;;;;4935168;29;20040;-71
2023/03/11 10:09:44;;;;;;;3.65;3.35;;;8.30;99.90;;;;;;4933882;29;20055;-71
2023/03/11 10:12:19;;;;;;;3.60;3.40;;;8.40;99.90;;;;;;4942264;29;20034;-72
2023/03/11 10:14:57;;;;;;;3.50;3.30;;;8.40;99.90;;;;;;4937024;29;20031;-71
2023/03/11 10:18:15;;;;;;;3.42;3.22;;;8.50;99.90;;;;;;4926475;29;20039;-72
2023/03/11 10:20:59;;;;;;;4.85;3.72;;;8.60;99.90;;;;;;4911926;29;20053;-71
2023/03/11 10:24:06;;;;;;;4.45;4.05;;;8.60;99.90;;;;;;4894991;29;20383;-72
2023/03/11 10:26:40;;;;;;;4.22;3.92;;;8.80;99.90;;;;;;4860010;29;20041;-71
2023/03/11 10:29:17;;;;;;;4.40;4.10;;;8.80;99.90;;;;;;4858680;29;20495;-72
2023/03/11 10:32:05;;;;;;;4.28;4.07;;;8.80;99.90;;;;;;4857375;29;20038;-72
2023/03/11 10:34:49;;;;;;;4.00;3.70;;;8.70;99.90;;;;;;4861523;29;20376;-72
2023/03/11 10:37:19;;;;;;;3.88;3.67;;;8.70;99.90;;;;;;4862693;29;20033;-72
2023/03/11 10:39:46;;;;;;;3.97;3.70;;;8.80;99.90;;;;;;4861218;29;20041;-71
2023/03/11 10:42:14;;;;;;;4.88;4.10;;;8.90;99.90;;;;;;4876806;29;20033;-71
2023/03/11 10:44:41;;;;;;;4.55;4.25;;;9.00;99.90;;;;;;4846282;29;20589;-71
2023/03/11 10:47:17;;;;;;;4.28;3.97;;;9.00;99.90;;;;;;4859138;29;20198;-72
2023/03/11 10:49:43;;;;;;;5.00;4.60;;;9.10;99.90;;;;;;4876186;29;20178;-72
2023/03/11 10:52:09;;;;;;;5.00;4.60;;;9.10;99.90;;;;;;4875890;29;20428;-72
2023/03/11 10:54:45;;;;;;;5.13;4.75;;;9.30;99.90;;;;;;4876401;29;20029;-71
2023/03/11 10:57:27;;;;;;;5.10;4.80;;;9.30;99.90;;;;;;4861647;29;20044;-72
2023/03/11 10:59:57;;;;;;;4.80;4.50;;;9.20;99.90;;;;;;4895477;29;20494;-72
2023/03/11 11:02:31;;;;;;;6.00;5.60;;;9.40;99.90;;;;;;4901193;29;20040;-72
2023/03/11 11:05:27;;;;;;;4.78;4.47;;;9.60;99.90;;;;;;4934193;29;20043;-71
2023/03/11 11:08:13;;;;;;;5.40;4.93;;;9.70;99.90;;;;;;4933391;28;20044;-71
2023/03/11 11:11:18;;;;;;;6.25;5.75;;;9.70;99.90;;;;;;4917539;29;20051;-71
2023/03/11 11:13:44;;;;;;;6.15;5.68;;;9.70;99.90;;;;;;4916263;29;20043;-71
2023/03/11 11:16:15;;;;;;;5.18;4.88;;;9.70;99.90;;;;;;4901927;29;20060;-71
2023/03/11 11:18:43;;;;;;;5.53;5.13;;;9.70;99.90;;;;;;4932854;29;20042;-71
2023/03/11 11:21:14;;;;;;;5.15;4.75;;;9.80;99.90;;;;;;4907202;29;20497;-71
2023/03/11 11:23:47;;;;;;;6.75;6.35;;;10.00;99.90;;;;;;4919609;29;20385;-71
2023/03/11 11:26:23;;;;;;;6.88;6.40;;;10.00;99.90;;;;;;4932393;29;20031;-71
2023/03/11 11:29:08;;;;;;;6.25;5.75;;;10.10;99.90;;;;;;4933444;29;20023;-71
2023/03/11 11:31:38;;;;;;;5.80;5.40;;;10.00;99.90;;;;;;4930606;28;20398;-71
2023/03/11 11:34:31;;;;;;;5.57;5.15;;;9.90;99.90;;;;;;4935585;29;20031;-71
2023/03/11 11:36:59;;;;;;;5.43;5.10;;;10.00;99.90;;;;;;4933670;29;20032;-71
2023/03/11 11:39:27;;;;;;;5.13;4.82;;;10.10;99.90;;;;;;4933486;29;20035;-72
2023/03/11 11:41:54;;;;;;;5.55;5.25;;;10.10;99.90;;;;;;4933144;29;20052;-71
2023/03/11 11:44:21;;;;;;;5.72;5.32;;;10.10;99.90;;;;;;4933690;29;20495;-71
2023/03/11 11:46:56;;;;;;;5.68;5.38;;;10.30;99.90;;;;;;4932304;28;20497;-71
2023/03/11 11:49:27;;;;;;;6.88;6.28;;;10.40;99.90;;;;;;4933421;29;20511;-71
2023/03/11 11:52:27;;;;;;;5.82;5.43;;;10.60;99.90;;;;;;4917080;29;20032;-72
2023/03/11 11:54:53;;;;;;;6.25;5.85;;;10.60;99.90;;;;;;4894239;29;20047;-71
2023/03/11 11:57:20;;;;;;;6.43;5.93;;;10.70;99.90;;;;;;4910876;29;20088;-70
2023/03/11 11:59:46;;;;;;;6.80;6.30;;;10.80;99.90;;;;;;4911043;29;20533;-72
2023/03/11 12:02:33;;;;;;;7.65;7.03;;;10.90;99.90;;;;;;4892007;29;20048;-71
2023/03/11 12:05:15;;;;;;;7.88;7.25;;;10.90;99.90;;;;;;4897224;29;20041;-71
2023/03/11 12:07:52;;;;;;;;;;;11.00;99.90;;;;;;4898939;29;20367;-71
2023/03/11 12:10:40;;;;;;;9.15;8.25;;;11.10;99.90;;;;;;4896321;29;19930;-71
2023/03/11 12:13:24;;;;;;;9.30;7.88;;;11.10;99.90;;;;;;4912595;29;20047;-71
2023/03/11 12:16:05;;;;;;;8.27;7.57;;;11.20;99.90;;;;;;4911002;29;20048;-72
2023/03/11 12:18:53;;;;;;;8.82;8.05;;;11.20;99.90;;;;;;4915676;29;20036;-72
2023/03/11 12:22:04;;;;;;;11.02;9.93;;;11.30;99.90;;;;;;4898410;29;20051;-71
2023/03/11 12:24:46;;;;;;;10.18;9.43;;;11.30;99.90;;;;;;4859293;29;20423;-71
2023/03/11 12:27:22;;;;;;;10.57;9.77;;;11.40;99.90;;;;;;4860448;29;20041;-71
2023/03/11 12:29:51;;;;;;;9.13;8.32;;;11.40;99.90;;;;;;4867149;29;20045;-71
2023/03/11 12:32:41;;;;;;;8.10;7.50;;;11.50;99.90;;;;;;4878348;29;20052;-71
2023/03/11 12:35:27;;;;;;;9.10;8.40;;;11.40;99.90;;;;;;4873768;29;20037;-71
2023/03/11 12:38:12;;;;;;;8.50;7.68;;;11.50;99.90;;;;;;4863346;29;20033;-71
2023/03/11 12:40:41;;;;;;;7.50;6.80;;;11.50;99.90;;;;;;4862809;29;20053;-71
2023/03/11 12:43:29;;;;;;;7.80;7.20;;;11.60;99.90;;;;;;4878772;29;20470;-71
2023/03/11 12:45:59;;;;;;;8.38;7.68;;;11.70;99.90;;;;;;4862845;29;20040;-72
2023/03/11 12:48:35;;;;;;;8.23;7.63;;;11.80;99.90;;;;;;4862667;29;20045;-72
2023/03/11 12:51:01;;;;;;;11.05;7.70;;;11.90;99.90;;;;;;4877713;29;20048;-72
2023/03/11 12:53:44;;;;;;;10.30;9.40;;;11.90;99.90;;;;;;4877525;29;20057;-71
2023/03/11 12:56:22;;;;;;;10.93;10.02;;;12.00;99.90;;;;;;4878015;29;20033;-71
2023/03/11 12:58:58;;;;;;;9.25;8.45;;;12.00;99.90;;;;;;4877523;29;20511;-71
2023/03/11 13:01:45;;;;;;;10.25;9.35;;;12.10;99.90;;;;;;4896179;29;20040;-71
2023/03/11 13:04:42;;;;;;;17.73;15.98;;;12.10;99.90;;;;;;4931518;29;20051;-71
2023/03/11 13:07:27;;;;;;;12.65;11.43;;;12.10;99.90;;;;;;4918373;29;20510;-71
2023/03/11 13:10:07;;;;;;;11.55;10.55;;;12.10;99.90;;;;;;4932359;29;20042;-71